sensor_id;sensor_type;location;lat;lon;timestamp;P1;durP1;ratioP1;P2;durP2;ratioP2
8401;SDS011;4238;48.404;9.498;2022-11-23T00:01:48;1.90;;;1.80;;
8401;SDS011;4238;48.404;9.498;2022-11-23T00:04:15;2.93;;;1.70;;
8401;SDS011;4238;48.404;9.498;2022-11-23T00:06:42;2.30;;;1.90;;
8401;SDS011;4238;48.404;9.498;2022-11-23T00:09:09;3.23;;;1.70;;
8401;SDS011;4238;48.404;9.498;2022-11-23T00:11:37;3.27;;;1.77;;
8401;SDS011;4238;48.404;9.498;2022-11-23T00:14:04;3.67;;;2.47;;
8401;SDS011;4238;48.404;9.498;2022-11-23T00:16:32;2.37;;;2.27;;
8401;SDS011;4238;48.404;9.498;2022-11-23T00:19:00;2.73;;;1.80;;
8401;SDS011;4238;48.404;9.498;2022-11-23T00:21:28;2.53;;;2.00;;
8401;SDS011;4238;48.404;9.498;2022-11-23T00:23:56;2.47;;;1.77;;
8401;SDS011;4238;48.404;9.498;2022-11-23T00:26:23;2.73;;;2.30;;
8401;SDS011;4238;48.404;9.498;2022-11-23T00:28:50;2.33;;;2.13;;
8401;SDS011;4238;48.404;9.498;2022-11-23T00:31:17;3.87;;;2.50;;
8401;SDS011;4238;48.404;9.498;2022-11-23T00:33:50;2.90;;;2.10;;
8401;SDS011;4238;48.404;9.498;2022-11-23T00:36:18;1.87;;;1.60;;
8401;SDS011;4238;48.404;9.498;2022-11-23T00:38:46;2.87;;;1.50;;
8401;SDS011;4238;48.404;9.498;2022-11-23T00:41:14;2.33;;;1.30;;
8401;SDS011;4238;48.404;9.498;2022-11-23T00:43:42;1.67;;;1.57;;
8401;SDS011;4238;48.404;9.498;2022-11-23T00:46:11;3.53;;;1.70;;
8401;SDS011;4238;48.404;9.498;2022-11-23T00:48:39;2.93;;;2.37;;
8401;SDS011;4238;48.404;9.498;2022-11-23T00:51:08;4.63;;;2.77;;
8401;SDS011;4238;48.404;9.498;2022-11-23T00:53:36;3.60;;;2.40;;
8401;SDS011;4238;48.404;9.498;2022-11-23T00:56:04;6.27;;;2.83;;
8401;SDS011;4238;48.404;9.498;2022-11-23T00:58:31;3.17;;;2.50;;
8401;SDS011;4238;48.404;9.498;2022-11-23T01:00:59;3.10;;;2.70;;
8401;SDS011;4238;48.404;9.498;2022-11-23T01:03:27;3.43;;;2.13;;
8401;SDS011;4238;48.404;9.498;2022-11-23T01:05:54;2.80;;;2.40;;
8401;SDS011;4238;48.404;9.498;2022-11-23T01:08:23;2.10;;;2.00;;
8401;SDS011;4238;48.404;9.498;2022-11-23T01:10:50;3.03;;;1.50;;
8401;SDS011;4238;48.404;9.498;2022-11-23T01:13:17;3.27;;;1.90;;
8401;SDS011;4238;48.404;9.498;2022-11-23T01:15:47;4.43;;;2.17;;
8401;SDS011;4238;48.404;9.498;2022-11-23T01:18:15;2.77;;;2.00;;
8401;SDS011;4238;48.404;9.498;2022-11-23T01:20:42;2.83;;;2.57;;
8401;SDS011;4238;48.404;9.498;2022-11-23T01:23:09;3.03;;;2.60;;
8401;SDS011;4238;48.404;9.498;2022-11-23T01:25:37;2.67;;;2.47;;
8401;SDS011;4238;48.404;9.498;2022-11-23T01:28:04;2.47;;;2.23;;
8401;SDS011;4238;48.404;9.498;2022-11-23T01:30:31;6.87;;;2.60;;
8401;SDS011;4238;48.404;9.498;2022-11-23T01:32:58;2.67;;;1.90;;
8401;SDS011;4238;48.404;9.498;2022-11-23T01:35:25;2.43;;;1.30;;
8401;SDS011;4238;48.404;9.498;2022-11-23T01:37:53;2.63;;;1.67;;
8401;SDS011;4238;48.404;9.498;2022-11-23T01:40:19;3.13;;;1.73;;
8401;SDS011;4238;48.404;9.498;2022-11-23T01:42:51;2.33;;;1.87;;
8401;SDS011;4238;48.404;9.498;2022-11-23T01:45:27;3.27;;;2.20;;
8401;SDS011;4238;48.404;9.498;2022-11-23T01:48:01;3.50;;;1.70;;
8401;SDS011;4238;48.404;9.498;2022-11-23T01:50:31;2.50;;;1.30;;
8401;SDS011;4238;48.404;9.498;2022-11-23T01:52:58;1.67;;;1.47;;
8401;SDS011;4238;48.404;9.498;2022-11-23T01:55:25;4.23;;;1.77;;
8401;SDS011;4238;48.404;9.498;2022-11-23T01:57:54;2.53;;;1.90;;
8401;SDS011;4238;48.404;9.498;2022-11-23T02:00:21;1.80;;;1.70;;
8401;SDS011;4238;48.404;9.498;2022-11-23T02:02:50;1.60;;;1.43;;
8401;SDS011;4238;48.404;9.498;2022-11-23T02:05:20;3.37;;;2.20;;
8401;SDS011;4238;48.404;9.498;2022-11-23T02:07:50;2.33;;;2.13;;
8401;SDS011;4238;48.404;9.498;2022-11-23T02:10:18;3.37;;;2.67;;
8401;SDS011;4238;48.404;9.498;2022-11-23T02:12:45;4.80;;;2.80;;
8401;SDS011;4238;48.404;9.498;2022-11-23T02:15:13;3.13;;;2.47;;
8401;SDS011;4238;48.404;9.498;2022-11-23T02:17:40;3.20;;;2.40;;
8401;SDS011;4238;48.404;9.498;2022-11-23T02:20:09;2.93;;;2.50;;
8401;SDS011;4238;48.404;9.498;2022-11-23T02:22:39;3.60;;;2.30;;
8401;SDS011;4238;48.404;9.498;2022-11-23T02:25:18;5.87;;;2.57;;
8401;SDS011;4238;48.404;9.498;2022-11-23T02:27:52;4.73;;;3.00;;
8401;SDS011;4238;48.404;9.498;2022-11-23T02:30:19;6.77;;;3.60;;
8401;SDS011;4238;48.404;9.498;2022-11-23T02:32:46;4.27;;;2.90;;
8401;SDS011;4238;48.404;9.498;2022-11-23T02:35:13;3.43;;;2.50;;
8401;SDS011;4238;48.404;9.498;2022-11-23T02:37:40;3.27;;;2.57;;
8401;SDS011;4238;48.404;9.498;2022-11-23T02:40:10;3.30;;;3.00;;
8401;SDS011;4238;48.404;9.498;2022-11-23T02:42:42;2.63;;;2.10;;
8401;SDS011;4238;48.404;9.498;2022-11-23T02:45:14;2.83;;;2.63;;
8401;SDS011;4238;48.404;9.498;2022-11-23T02:47:49;5.97;;;3.40;;
8401;SDS011;4238;48.404;9.498;2022-11-23T02:50:16;4.87;;;3.33;;
8401;SDS011;4238;48.404;9.498;2022-11-23T02:52:43;3.97;;;3.20;;
8401;SDS011;4238;48.404;9.498;2022-11-23T02:55:10;3.57;;;2.40;;
8401;SDS011;4238;48.404;9.498;2022-11-23T02:57:37;2.97;;;2.77;;
8401;SDS011;4238;48.404;9.498;2022-11-23T03:00:04;2.60;;;2.00;;
8401;SDS011;4238;48.404;9.498;2022-11-23T03:02:33;2.77;;;2.53;;
8401;SDS011;4238;48.404;9.498;2022-11-23T03:05:00;3.10;;;2.37;;
8401;SDS011;4238;48.404;9.498;2022-11-23T03:07:27;3.23;;;2.33;;
8401;SDS011;4238;48.404;9.498;2022-11-23T03:09:54;4.03;;;2.57;;
8401;SDS011;4238;48.404;9.498;2022-11-23T03:12:21;2.97;;;2.47;;
8401;SDS011;4238;48.404;9.498;2022-11-23T03:14:47;2.97;;;2.17;;
8401;SDS011;4238;48.404;9.498;2022-11-23T03:17:14;2.40;;;2.20;;
8401;SDS011;4238;48.404;9.498;2022-11-23T03:19:43;2.60;;;2.07;;
8401;SDS011;4238;48.404;9.498;2022-11-23T03:22:10;4.83;;;2.80;;
8401;SDS011;4238;48.404;9.498;2022-11-23T03:24:37;4.10;;;2.20;;
8401;SDS011;4238;48.404;9.498;2022-11-23T03:27:03;3.30;;;1.97;;
8401;SDS011;4238;48.404;9.498;2022-11-23T03:29:31;2.03;;;1.87;;
8401;SDS011;4238;48.404;9.498;2022-11-23T03:31:57;2.30;;;2.07;;
8401;SDS011;4238;48.404;9.498;2022-11-23T03:34:24;3.67;;;2.27;;
8401;SDS011;4238;48.404;9.498;2022-11-23T03:36:53;4.63;;;2.00;;
8401;SDS011;4238;48.404;9.498;2022-11-23T03:39:19;2.70;;;2.00;;
8401;SDS011;4238;48.404;9.498;2022-11-23T03:41:46;3.03;;;1.80;;
8401;SDS011;4238;48.404;9.498;2022-11-23T03:44:13;3.17;;;1.90;;
8401;SDS011;4238;48.404;9.498;2022-11-23T03:46:40;2.03;;;1.53;;
8401;SDS011;4238;48.404;9.498;2022-11-23T03:49:08;7.30;;;2.30;;
8401;SDS011;4238;48.404;9.498;2022-11-23T03:51:34;4.23;;;2.43;;
8401;SDS011;4238;48.404;9.498;2022-11-23T03:54:03;3.87;;;2.63;;
8401;SDS011;4238;48.404;9.498;2022-11-23T03:56:30;2.10;;;1.90;;
8401;SDS011;4238;48.404;9.498;2022-11-23T03:58:57;3.07;;;2.47;;
8401;SDS011;4238;48.404;9.498;2022-11-23T04:01:24;3.77;;;2.17;;
8401;SDS011;4238;48.404;9.498;2022-11-23T04:03:51;2.40;;;2.07;;
8401;SDS011;4238;48.404;9.498;2022-11-23T04:06:18;2.83;;;2.00;;
8401;SDS011;4238;48.404;9.498;2022-11-23T04:08:45;4.13;;;2.10;;
8401;SDS011;4238;48.404;9.498;2022-11-23T04:11:13;2.53;;;1.83;;
8401;SDS011;4238;48.404;9.498;2022-11-23T04:13:40;4.20;;;2.23;;
8401;SDS011;4238;48.404;9.498;2022-11-23T04:16:07;6.00;;;1.77;;
8401;SDS011;4238;48.404;9.498;2022-11-23T04:18:34;2.10;;;1.70;;
8401;SDS011;4238;48.404;9.498;2022-11-23T04:21:01;1.80;;;1.70;;
8401;SDS011;4238;48.404;9.498;2022-11-23T04:23:28;2.30;;;1.83;;
8401;SDS011;4238;48.404;9.498;2022-11-23T04:25:54;2.53;;;1.80;;
8401;SDS011;4238;48.404;9.498;2022-11-23T04:28:23;4.27;;;1.77;;
8401;SDS011;4238;48.404;9.498;2022-11-23T04:30:50;4.17;;;1.77;;
8401;SDS011;4238;48.404;9.498;2022-11-23T04:33:16;2.77;;;1.57;;
8401;SDS011;4238;48.404;9.498;2022-11-23T04:35:43;2.10;;;1.90;;
8401;SDS011;4238;48.404;9.498;2022-11-23T04:38:10;4.07;;;1.80;;
8401;SDS011;4238;48.404;9.498;2022-11-23T04:40:37;3.20;;;2.03;;
8401;SDS011;4238;48.404;9.498;2022-11-23T04:43:04;2.03;;;1.80;;
8401;SDS011;4238;48.404;9.498;2022-11-23T04:45:37;2.37;;;1.43;;
8401;SDS011;4238;48.404;9.498;2022-11-23T04:48:04;1.47;;;1.37;;
8401;SDS011;4238;48.404;9.498;2022-11-23T04:50:31;1.77;;;1.63;;
8401;SDS011;4238;48.404;9.498;2022-11-23T04:52:59;3.10;;;2.00;;
8401;SDS011;4238;48.404;9.498;2022-11-23T04:55:26;2.13;;;1.97;;
8401;SDS011;4238;48.404;9.498;2022-11-23T04:57:53;3.27;;;2.20;;
8401;SDS011;4238;48.404;9.498;2022-11-23T05:00:20;1.70;;;1.60;;
8401;SDS011;4238;48.404;9.498;2022-11-23T05:02:48;2.37;;;2.17;;
8401;SDS011;4238;48.404;9.498;2022-11-23T05:05:15;2.53;;;1.97;;
8401;SDS011;4238;48.404;9.498;2022-11-23T05:07:42;3.83;;;2.33;;
8401;SDS011;4238;48.404;9.498;2022-11-23T05:10:09;3.37;;;2.83;;
8401;SDS011;4238;48.404;9.498;2022-11-23T05:12:36;3.50;;;2.63;;
8401;SDS011;4238;48.404;9.498;2022-11-23T05:15:04;4.87;;;3.00;;
8401;SDS011;4238;48.404;9.498;2022-11-23T05:17:31;3.43;;;3.13;;
8401;SDS011;4238;48.404;9.498;2022-11-23T05:20:00;7.20;;;4.00;;
8401;SDS011;4238;48.404;9.498;2022-11-23T05:22:27;7.10;;;4.07;;
8401;SDS011;4238;48.404;9.498;2022-11-23T05:24:54;4.23;;;3.70;;
8401;SDS011;4238;48.404;9.498;2022-11-23T05:27:21;5.50;;;4.10;;
8401;SDS011;4238;48.404;9.498;2022-11-23T05:29:48;4.00;;;3.57;;
8401;SDS011;4238;48.404;9.498;2022-11-23T05:32:15;5.87;;;4.23;;
8401;SDS011;4238;48.404;9.498;2022-11-23T05:34:42;4.13;;;3.57;;
8401;SDS011;4238;48.404;9.498;2022-11-23T05:37:10;4.60;;;3.87;;
8401;SDS011;4238;48.404;9.498;2022-11-23T05:39:37;3.97;;;3.63;;
8401;SDS011;4238;48.404;9.498;2022-11-23T05:42:04;4.03;;;3.63;;
8401;SDS011;4238;48.404;9.498;2022-11-23T05:44:31;5.20;;;3.43;;
8401;SDS011;4238;48.404;9.498;2022-11-23T05:46:58;4.30;;;3.90;;
8401;SDS011;4238;48.404;9.498;2022-11-23T05:49:25;4.17;;;3.67;;
8401;SDS011;4238;48.404;9.498;2022-11-23T05:51:52;3.80;;;3.43;;
8401;SDS011;4238;48.404;9.498;2022-11-23T05:54:20;3.63;;;3.27;;
8401;SDS011;4238;48.404;9.498;2022-11-23T05:56:47;5.30;;;3.40;;
8401;SDS011;4238;48.404;9.498;2022-11-23T05:59:14;4.73;;;3.83;;
8401;SDS011;4238;48.404;9.498;2022-11-23T06:01:41;6.60;;;4.63;;
8401;SDS011;4238;48.404;9.498;2022-11-23T06:04:08;7.47;;;3.67;;
8401;SDS011;4238;48.404;9.498;2022-11-23T06:06:35;5.07;;;3.60;;
8401;SDS011;4238;48.404;9.498;2022-11-23T06:09:02;6.60;;;4.50;;
8401;SDS011;4238;48.404;9.498;2022-11-23T06:11:30;4.57;;;3.80;;
8401;SDS011;4238;48.404;9.498;2022-11-23T06:13:57;6.20;;;4.00;;
8401;SDS011;4238;48.404;9.498;2022-11-23T06:16:24;6.13;;;4.70;;
8401;SDS011;4238;48.404;9.498;2022-11-23T06:18:51;7.60;;;5.37;;
8401;SDS011;4238;48.404;9.498;2022-11-23T06:21:18;6.07;;;5.37;;
8401;SDS011;4238;48.404;9.498;2022-11-23T06:23:45;4.70;;;4.30;;
8401;SDS011;4238;48.404;9.498;2022-11-23T06:26:12;5.00;;;4.30;;
8401;SDS011;4238;48.404;9.498;2022-11-23T06:28:40;6.80;;;5.37;;
8401;SDS011;4238;48.404;9.498;2022-11-23T06:31:08;5.90;;;5.30;;
8401;SDS011;4238;48.404;9.498;2022-11-23T06:33:37;8.20;;;4.63;;
8401;SDS011;4238;48.404;9.498;2022-11-23T06:36:04;6.27;;;5.00;;
8401;SDS011;4238;48.404;9.498;2022-11-23T06:38:34;7.77;;;5.37;;
8401;SDS011;4238;48.404;9.498;2022-11-23T06:41:01;6.47;;;4.83;;
8401;SDS011;4238;48.404;9.498;2022-11-23T06:43:28;5.17;;;4.43;;
8401;SDS011;4238;48.404;9.498;2022-11-23T06:45:57;5.03;;;4.53;;
8401;SDS011;4238;48.404;9.498;2022-11-23T06:48:24;5.70;;;5.00;;
8401;SDS011;4238;48.404;9.498;2022-11-23T06:50:50;5.87;;;4.73;;
8401;SDS011;4238;48.404;9.498;2022-11-23T06:53:17;4.90;;;4.30;;
8401;SDS011;4238;48.404;9.498;2022-11-23T06:55:44;5.43;;;4.10;;
8401;SDS011;4238;48.404;9.498;2022-11-23T06:58:11;6.20;;;5.03;;
8401;SDS011;4238;48.404;9.498;2022-11-23T07:00:38;13.88;;;10.43;;
8401;SDS011;4238;48.404;9.498;2022-11-23T07:03:10;7.37;;;6.60;;
8401;SDS011;4238;48.404;9.498;2022-11-23T07:05:43;7.27;;;5.40;;
8401;SDS011;4238;48.404;9.498;2022-11-23T07:08:10;4.70;;;4.30;;
8401;SDS011;4238;48.404;9.498;2022-11-23T07:10:37;4.50;;;4.10;;
8401;SDS011;4238;48.404;9.498;2022-11-23T07:13:04;5.77;;;4.63;;
8401;SDS011;4238;48.404;9.498;2022-11-23T07:15:32;6.00;;;5.37;;
8401;SDS011;4238;48.404;9.498;2022-11-23T07:17:59;20.40;;;18.43;;
8401;SDS011;4238;48.404;9.498;2022-11-23T07:20:27;14.10;;;12.67;;
8401;SDS011;4238;48.404;9.498;2022-11-23T07:22:58;13.20;;;11.80;;
8401;SDS011;4238;48.404;9.498;2022-11-23T07:25:25;23.67;;;19.00;;
8401;SDS011;4238;48.404;9.498;2022-11-23T07:27:53;17.07;;;15.43;;
8401;SDS011;4238;48.404;9.498;2022-11-23T07:30:21;20.97;;;18.13;;
8401;SDS011;4238;48.404;9.498;2022-11-23T07:32:48;22.27;;;16.87;;
8401;SDS011;4238;48.404;9.498;2022-11-23T07:35:15;23.73;;;15.80;;
8401;SDS011;4238;48.404;9.498;2022-11-23T07:37:43;26.77;;;14.27;;
8401;SDS011;4238;48.404;9.498;2022-11-23T07:40:10;18.60;;;14.40;;
8401;SDS011;4238;48.404;9.498;2022-11-23T07:42:38;23.73;;;13.20;;
8401;SDS011;4238;48.404;9.498;2022-11-23T07:45:05;20.40;;;12.47;;
8401;SDS011;4238;48.404;9.498;2022-11-23T07:47:33;17.80;;;12.23;;
8401;SDS011;4238;48.404;9.498;2022-11-23T07:50:00;15.23;;;10.53;;
8401;SDS011;4238;48.404;9.498;2022-11-23T07:52:27;17.43;;;10.73;;
8401;SDS011;4238;48.404;9.498;2022-11-23T07:54:56;12.00;;;10.23;;
8401;SDS011;4238;48.404;9.498;2022-11-23T07:57:24;17.53;;;9.37;;
8401;SDS011;4238;48.404;9.498;2022-11-23T07:59:51;11.67;;;8.80;;
8401;SDS011;4238;48.404;9.498;2022-11-23T08:02:18;11.30;;;8.03;;
8401;SDS011;4238;48.404;9.498;2022-11-23T08:04:45;13.83;;;9.63;;
8401;SDS011;4238;48.404;9.498;2022-11-23T08:07:12;10.73;;;8.13;;
8401;SDS011;4238;48.404;9.498;2022-11-23T08:09:39;9.93;;;8.17;;
8401;SDS011;4238;48.404;9.498;2022-11-23T08:12:08;12.20;;;9.50;;
8401;SDS011;4238;48.404;9.498;2022-11-23T08:14:35;10.33;;;8.50;;
8401;SDS011;4238;48.404;9.498;2022-11-23T08:17:01;8.87;;;7.17;;
8401;SDS011;4238;48.404;9.498;2022-11-23T08:19:29;6.60;;;6.00;;
8401;SDS011;4238;48.404;9.498;2022-11-23T08:21:55;4.03;;;3.63;;
8401;SDS011;4238;48.404;9.498;2022-11-23T08:24:22;4.73;;;4.23;;
8401;SDS011;4238;48.404;9.498;2022-11-23T08:26:49;3.57;;;3.27;;
8401;SDS011;4238;48.404;9.498;2022-11-23T08:29:17;4.50;;;3.73;;
8401;SDS011;4238;48.404;9.498;2022-11-23T08:31:44;4.53;;;3.00;;
8401;SDS011;4238;48.404;9.498;2022-11-23T08:34:11;4.13;;;3.70;;
8401;SDS011;4238;48.404;9.498;2022-11-23T08:36:39;4.90;;;3.43;;
8401;SDS011;4238;48.404;9.498;2022-11-23T08:39:06;4.13;;;3.50;;
8401;SDS011;4238;48.404;9.498;2022-11-23T08:41:35;4.53;;;4.13;;
8401;SDS011;4238;48.404;9.498;2022-11-23T08:44:02;3.70;;;3.40;;
8401;SDS011;4238;48.404;9.498;2022-11-23T08:46:30;4.90;;;3.37;;
8401;SDS011;4238;48.404;9.498;2022-11-23T08:48:57;7.10;;;3.63;;
8401;SDS011;4238;48.404;9.498;2022-11-23T08:51:24;6.00;;;3.30;;
8401;SDS011;4238;48.404;9.498;2022-11-23T08:53:51;6.77;;;3.80;;
8401;SDS011;4238;48.404;9.498;2022-11-23T08:56:18;8.30;;;3.50;;
8401;SDS011;4238;48.404;9.498;2022-11-23T08:58:45;4.33;;;3.93;;
8401;SDS011;4238;48.404;9.498;2022-11-23T09:01:12;5.93;;;3.80;;
8401;SDS011;4238;48.404;9.498;2022-11-23T09:03:42;8.27;;;3.83;;
8401;SDS011;4238;48.404;9.498;2022-11-23T09:06:10;13.20;;;5.03;;
8401;SDS011;4238;48.404;9.498;2022-11-23T09:08:37;5.03;;;4.20;;
8401;SDS011;4238;48.404;9.498;2022-11-23T09:11:04;20.60;;;4.90;;
8401;SDS011;4238;48.404;9.498;2022-11-23T09:13:33;11.33;;;5.20;;
8401;SDS011;4238;48.404;9.498;2022-11-23T09:16:01;8.07;;;4.17;;
8401;SDS011;4238;48.404;9.498;2022-11-23T09:18:29;8.80;;;5.53;;
8401;SDS011;4238;48.404;9.498;2022-11-23T09:21:00;12.07;;;4.63;;
8401;SDS011;4238;48.404;9.498;2022-11-23T09:23:27;27.50;;;5.07;;
8401;SDS011;4238;48.404;9.498;2022-11-23T09:25:56;6.40;;;4.20;;
8401;SDS011;4238;48.404;9.498;2022-11-23T09:28:23;4.63;;;4.17;;
8401;SDS011;4238;48.404;9.498;2022-11-23T09:30:52;4.53;;;4.10;;
8401;SDS011;4238;48.404;9.498;2022-11-23T09:33:19;20.50;;;4.80;;
8401;SDS011;4238;48.404;9.498;2022-11-23T09:35:46;5.33;;;3.90;;
8401;SDS011;4238;48.404;9.498;2022-11-23T09:38:14;4.70;;;4.20;;
8401;SDS011;4238;48.404;9.498;2022-11-23T09:40:41;7.23;;;4.10;;
8401;SDS011;4238;48.404;9.498;2022-11-23T09:43:16;10.37;;;4.63;;
8401;SDS011;4238;48.404;9.498;2022-11-23T09:45:57;8.27;;;5.00;;
8401;SDS011;4238;48.404;9.498;2022-11-23T09:48:40;12.33;;;5.73;;
8401;SDS011;4238;48.404;9.498;2022-11-23T09:51:18;9.67;;;5.07;;
8401;SDS011;4238;48.404;9.498;2022-11-23T09:53:48;9.63;;;5.37;;
8401;SDS011;4238;48.404;9.498;2022-11-23T09:56:19;5.53;;;4.60;;
8401;SDS011;4238;48.404;9.498;2022-11-23T09:58:49;5.57;;;5.00;;
8401;SDS011;4238;48.404;9.498;2022-11-23T10:01:20;5.87;;;5.20;;
8401;SDS011;4238;48.404;9.498;2022-11-23T10:03:47;7.97;;;5.60;;
8401;SDS011;4238;48.404;9.498;2022-11-23T10:06:18;5.67;;;5.10;;
8401;SDS011;4238;48.404;9.498;2022-11-23T10:09:00;6.20;;;5.23;;
8401;SDS011;4238;48.404;9.498;2022-11-23T10:11:57;6.20;;;4.80;;
8401;SDS011;4238;48.404;9.498;2022-11-23T10:14:47;7.30;;;4.57;;
8401;SDS011;4238;48.404;9.498;2022-11-23T10:17:22;6.37;;;5.07;;
8401;SDS011;4238;48.404;9.498;2022-11-23T10:20:02;7.07;;;5.50;;
8401;SDS011;4238;48.404;9.498;2022-11-23T10:22:44;5.67;;;5.00;;
8401;SDS011;4238;48.404;9.498;2022-11-23T10:25:18;8.30;;;7.20;;
8401;SDS011;4238;48.404;9.498;2022-11-23T10:27:47;6.00;;;4.53;;
8401;SDS011;4238;48.404;9.498;2022-11-23T10:30:16;5.27;;;4.77;;
8401;SDS011;4238;48.404;9.498;2022-11-23T10:32:45;4.67;;;4.27;;
8401;SDS011;4238;48.404;9.498;2022-11-23T10:35:16;5.47;;;4.37;;
8401;SDS011;4238;48.404;9.498;2022-11-23T10:37:48;4.87;;;4.43;;
8401;SDS011;4238;48.404;9.498;2022-11-23T10:40:15;4.63;;;4.20;;
8401;SDS011;4238;48.404;9.498;2022-11-23T10:42:47;6.13;;;4.57;;
8401;SDS011;4238;48.404;9.498;2022-11-23T10:45:19;5.47;;;4.97;;
8401;SDS011;4238;48.404;9.498;2022-11-23T10:47:49;5.83;;;5.03;;
8401;SDS011;4238;48.404;9.498;2022-11-23T10:50:22;6.20;;;5.10;;
8401;SDS011;4238;48.404;9.498;2022-11-23T10:52:52;4.83;;;3.97;;
8401;SDS011;4238;48.404;9.498;2022-11-23T10:55:23;5.77;;;3.90;;
8401;SDS011;4238;48.404;9.498;2022-11-23T10:57:52;4.80;;;4.00;;
8401;SDS011;4238;48.404;9.498;2022-11-23T11:00:20;6.93;;;4.53;;
8401;SDS011;4238;48.404;9.498;2022-11-23T11:02:49;4.57;;;4.10;;
8401;SDS011;4238;48.404;9.498;2022-11-23T11:05:31;4.77;;;3.80;;
8401;SDS011;4238;48.404;9.498;2022-11-23T11:07:59;3.93;;;3.53;;
8401;SDS011;4238;48.404;9.498;2022-11-23T11:10:36;4.40;;;3.47;;
8401;SDS011;4238;48.404;9.498;2022-11-23T11:13:19;6.00;;;3.67;;
8401;SDS011;4238;48.404;9.498;2022-11-23T11:15:56;4.43;;;4.13;;
8401;SDS011;4238;48.404;9.498;2022-11-23T11:18:25;8.43;;;7.63;;
8401;SDS011;4238;48.404;9.498;2022-11-23T11:20:55;7.67;;;6.60;;
8401;SDS011;4238;48.404;9.498;2022-11-23T11:23:24;5.63;;;3.53;;
8401;SDS011;4238;48.404;9.498;2022-11-23T11:26:02;4.33;;;3.40;;
8401;SDS011;4238;48.404;9.498;2022-11-23T11:28:32;5.70;;;3.67;;
8401;SDS011;4238;48.404;9.498;2022-11-23T11:31:06;2.67;;;2.40;;
8401;SDS011;4238;48.404;9.498;2022-11-23T11:33:57;2.60;;;2.30;;
8401;SDS011;4238;48.404;9.498;2022-11-23T11:36:31;2.73;;;2.10;;
8401;SDS011;4238;48.404;9.498;2022-11-23T11:39:04;4.37;;;2.40;;
8401;SDS011;4238;48.404;9.498;2022-11-23T11:41:39;2.83;;;2.17;;
8401;SDS011;4238;48.404;9.498;2022-11-23T11:44:12;4.23;;;2.50;;
8401;SDS011;4238;48.404;9.498;2022-11-23T11:46:45;2.40;;;1.67;;
8401;SDS011;4238;48.404;9.498;2022-11-23T11:49:16;2.97;;;2.43;;
8401;SDS011;4238;48.404;9.498;2022-11-23T11:51:47;2.57;;;2.13;;
8401;SDS011;4238;48.404;9.498;2022-11-23T11:54:19;4.20;;;2.07;;
8401;SDS011;4238;48.404;9.498;2022-11-23T11:56:53;3.17;;;1.80;;
8401;SDS011;4238;48.404;9.498;2022-11-23T11:59:25;4.73;;;1.90;;
8401;SDS011;4238;48.404;9.498;2022-11-23T12:01:55;2.63;;;1.40;;
8401;SDS011;4238;48.404;9.498;2022-11-23T12:04:27;2.43;;;1.70;;
8401;SDS011;4238;48.404;9.498;2022-11-23T12:07:01;5.63;;;2.20;;
8401;SDS011;4238;48.404;9.498;2022-11-23T12:09:34;4.13;;;2.10;;
8401;SDS011;4238;48.404;9.498;2022-11-23T12:12:10;2.77;;;1.53;;
8401;SDS011;4238;48.404;9.498;2022-11-23T12:14:41;8.00;;;4.13;;
8401;SDS011;4238;48.404;9.498;2022-11-23T12:17:17;2.83;;;2.50;;
8401;SDS011;4238;48.404;9.498;2022-11-23T12:19:58;3.67;;;2.47;;
8401;SDS011;4238;48.404;9.498;2022-11-23T12:22:35;3.60;;;3.30;;
8401;SDS011;4238;48.404;9.498;2022-11-23T12:25:12;1.90;;;1.77;;
8401;SDS011;4238;48.404;9.498;2022-11-23T12:27:53;1.20;;;1.10;;
8401;SDS011;4238;48.404;9.498;2022-11-23T12:30:28;1.80;;;1.20;;
8401;SDS011;4238;48.404;9.498;2022-11-23T12:33:05;1.50;;;1.37;;
8401;SDS011;4238;48.404;9.498;2022-11-23T12:35:45;3.23;;;1.53;;
8401;SDS011;4238;48.404;9.498;2022-11-23T12:38:24;1.87;;;1.53;;
8401;SDS011;4238;48.404;9.498;2022-11-23T12:41:13;1.30;;;1.20;;
8401;SDS011;4238;48.404;9.498;2022-11-23T12:43:56;1.27;;;1.17;;
8401;SDS011;4238;48.404;9.498;2022-11-23T12:46:57;2.10;;;1.10;;
8401;SDS011;4238;48.404;9.498;2022-11-23T12:49:35;25.87;;;20.63;;
8401;SDS011;4238;48.404;9.498;2022-11-23T12:52:10;3.53;;;1.87;;
8401;SDS011;4238;48.404;9.498;2022-11-23T12:54:55;3.47;;;1.27;;
8401;SDS011;4238;48.404;9.498;2022-11-23T12:57:30;1.67;;;1.57;;
8401;SDS011;4238;48.404;9.498;2022-11-23T13:00:05;2.73;;;1.63;;
8401;SDS011;4238;48.404;9.498;2022-11-23T13:03:00;1.57;;;1.47;;
8401;SDS011;4238;48.404;9.498;2022-11-23T13:05:59;2.43;;;1.87;;
8401;SDS011;4238;48.404;9.498;2022-11-23T13:12:07;1.17;;;1.10;;
8401;SDS011;4238;48.404;9.498;2022-11-23T13:14:46;2.47;;;1.40;;
8401;SDS011;4238;48.404;9.498;2022-11-23T13:17:27;1.93;;;1.83;;
8401;SDS011;4238;48.404;9.498;2022-11-23T13:20:08;2.30;;;1.50;;
8401;SDS011;4238;48.404;9.498;2022-11-23T13:23:02;1.53;;;1.40;;
8401;SDS011;4238;48.404;9.498;2022-11-23T13:25:30;1.50;;;1.40;;
8401;SDS011;4238;48.404;9.498;2022-11-23T13:27:59;1.50;;;1.30;;
8401;SDS011;4238;48.404;9.498;2022-11-23T13:30:31;2.10;;;1.53;;
8401;SDS011;4238;48.404;9.498;2022-11-23T13:33:02;1.53;;;1.43;;
8401;SDS011;4238;48.404;9.498;2022-11-23T13:35:54;1.40;;;1.30;;
8401;SDS011;4238;48.404;9.498;2022-11-23T13:38:24;1.27;;;1.20;;
8401;SDS011;4238;48.404;9.498;2022-11-23T13:44:09;1.63;;;1.53;;
8401;SDS011;4238;48.404;9.498;2022-11-23T13:46:37;1.23;;;1.13;;
8401;SDS011;4238;48.404;9.498;2022-11-23T13:49:22;2.47;;;1.47;;
8401;SDS011;4238;48.404;9.498;2022-11-23T13:52:03;1.03;;;0.93;;
8401;SDS011;4238;48.404;9.498;2022-11-23T13:54:31;1.57;;;1.47;;
8401;SDS011;4238;48.404;9.498;2022-11-23T13:57:00;1.60;;;1.50;;
8401;SDS011;4238;48.404;9.498;2022-11-23T13:59:31;5.67;;;5.10;;
8401;SDS011;4238;48.404;9.498;2022-11-23T14:08:01;2.20;;;1.70;;
8401;SDS011;4238;48.404;9.498;2022-11-23T14:10:30;2.10;;;0.93;;
8401;SDS011;4238;48.404;9.498;2022-11-23T14:12:59;1.60;;;1.50;;
8401;SDS011;4238;48.404;9.498;2022-11-23T14:15:30;2.97;;;1.17;;
8401;SDS011;4238;48.404;9.498;2022-11-23T14:18:09;1.63;;;1.07;;
8401;SDS011;4238;48.404;9.498;2022-11-23T14:20:59;2.43;;;1.20;;
8401;SDS011;4238;48.404;9.498;2022-11-23T14:27:05;2.73;;;1.73;;
8401;SDS011;4238;48.404;9.498;2022-11-23T14:30:13;2.43;;;1.63;;
8401;SDS011;4238;48.404;9.498;2022-11-23T14:32:51;2.00;;;1.37;;
8401;SDS011;4238;48.404;9.498;2022-11-23T14:35:29;1.90;;;1.00;;
8401;SDS011;4238;48.404;9.498;2022-11-23T14:38:19;2.83;;;0.83;;
8401;SDS011;4238;48.404;9.498;2022-11-23T14:41:18;1.23;;;0.80;;
8401;SDS011;4238;48.404;9.498;2022-11-23T14:43:47;1.90;;;0.73;;
8401;SDS011;4238;48.404;9.498;2022-11-23T14:46:15;2.27;;;1.73;;
8401;SDS011;4238;48.404;9.498;2022-11-23T14:48:44;1.30;;;1.20;;
8401;SDS011;4238;48.404;9.498;2022-11-23T14:51:12;3.07;;;1.60;;
8401;SDS011;4238;48.404;9.498;2022-11-23T14:53:43;0.80;;;0.80;;
8401;SDS011;4238;48.404;9.498;2022-11-23T14:56:20;1.90;;;0.63;;
8401;SDS011;4238;48.404;9.498;2022-11-23T14:58:57;1.67;;;0.60;;
8401;SDS011;4238;48.404;9.498;2022-11-23T15:01:27;1.10;;;0.83;;
8401;SDS011;4238;48.404;9.498;2022-11-23T15:03:55;4.23;;;3.23;;
8401;SDS011;4238;48.404;9.498;2022-11-23T15:06:24;0.47;;;0.43;;
8401;SDS011;4238;48.404;9.498;2022-11-23T15:08:58;1.47;;;0.87;;
8401;SDS011;4238;48.404;9.498;2022-11-23T15:11:33;0.53;;;0.53;;
8401;SDS011;4238;48.404;9.498;2022-11-23T15:14:02;0.60;;;0.60;;
8401;SDS011;4238;48.404;9.498;2022-11-23T15:16:41;1.77;;;1.43;;
8401;SDS011;4238;48.404;9.498;2022-11-23T15:19:25;2.20;;;1.97;;
8401;SDS011;4238;48.404;9.498;2022-11-23T15:21:53;1.97;;;1.87;;
8401;SDS011;4238;48.404;9.498;2022-11-23T15:24:22;0.90;;;0.80;;
8401;SDS011;4238;48.404;9.498;2022-11-23T15:26:50;1.67;;;0.40;;
8401;SDS011;4238;48.404;9.498;2022-11-23T15:29:28;0.87;;;0.70;;
8401;SDS011;4238;48.404;9.498;2022-11-23T15:31:56;6.67;;;4.70;;
8401;SDS011;4238;48.404;9.498;2022-11-23T15:34:24;5.53;;;4.73;;
8401;SDS011;4238;48.404;9.498;2022-11-23T15:36:51;2.83;;;0.90;;
8401;SDS011;4238;48.404;9.498;2022-11-23T15:39:21;0.50;;;0.50;;
8401;SDS011;4238;48.404;9.498;2022-11-23T15:41:50;1.70;;;1.60;;
8401;SDS011;4238;48.404;9.498;2022-11-23T15:44:21;1.27;;;0.80;;
8401;SDS011;4238;48.404;9.498;2022-11-23T15:46:50;1.40;;;0.63;;
8401;SDS011;4238;48.404;9.498;2022-11-23T15:49:19;0.93;;;0.53;;